Wenonah, Illinois
Current Conditions -  °F | °C
As of 2:15 AM on Friday 24 Oct 2014 (Local Time) from KTAZ Reporting Station
Overcast Overcast  
Wind Chill: 52°   Ceiling: 2900
Heat Index: 52°   Visibility: 10mi
Dew Point: 45°   Wind: 7mph
Humidity: 76%   Direction: 210°SSW
Pressure: 30.07"   Gusts: NA
Location:  39.3183°N, 89.2952°W
Report Text: KTAZ 240715Z AUTO 21006KT 10SM OVC029 11/07 A3007 RMK AO2
Loading
Personal Weather Stations






























Interactive Weather Map
Tropical Storm Tracking
New forecast layout! Learn more

10-Day Weather Forecast

Advertisements
Track Severe Weather on mobile